createdAt,value
2018-10-06T00:00:35.072Z,96.70
2018-10-06T00:03:05.554Z,96.60
2018-10-06T00:05:34.218Z,96.80
2018-10-06T00:08:02.864Z,97.20
2018-10-06T00:10:31.943Z,97.20
2018-10-06T00:13:01.346Z,97.00
2018-10-06T00:15:30.725Z,96.80
2018-10-06T00:17:59.452Z,97.30
2018-10-06T00:20:28.130Z,97.20
2018-10-06T00:22:56.805Z,97.20
2018-10-06T00:25:25.479Z,97.20
2018-10-06T00:27:54.159Z,97.20
2018-10-06T00:30:22.994Z,97.00
2018-10-06T00:32:51.695Z,96.90
2018-10-06T00:35:20.358Z,96.80
2018-10-06T00:37:49.042Z,96.80
2018-10-06T00:40:17.702Z,96.80
2018-10-06T00:42:46.335Z,96.90
2018-10-06T00:45:15.222Z,96.90
2018-10-06T00:47:43.892Z,96.80
2018-10-06T00:50:12.464Z,97.10
2018-10-06T00:52:41.103Z,97.30
2018-10-06T00:55:09.740Z,97.50
2018-10-06T00:57:38.914Z,96.80
2018-10-06T01:00:07.758Z,98.60
2018-10-06T01:02:36.572Z,97.40
2018-10-06T01:05:06.518Z,97.30
2018-10-06T01:07:35.362Z,97.10
2018-10-06T01:10:04.240Z,97.10
2018-10-06T01:12:33.009Z,97.10
2018-10-06T01:15:02.056Z,96.90
2018-10-06T01:17:30.726Z,97.20
2018-10-06T01:19:59.334Z,97.00
2018-10-06T01:22:32.314Z,97.10
2018-10-06T01:25:01.068Z,97.70
2018-10-06T01:27:29.738Z,97.80
2018-10-06T01:29:58.481Z,98.00
2018-10-06T01:32:27.199Z,98.20
2018-10-06T01:34:55.898Z,97.90
2018-10-06T01:37:24.651Z,97.70
2018-10-06T01:39:53.401Z,98.00
2018-10-06T01:42:22.545Z,98.30
2018-10-06T01:44:51.298Z,98.50
2018-10-06T01:47:20.392Z,98.70
2018-10-06T01:49:49.057Z,98.70
2018-10-06T01:52:17.774Z,98.30
2018-10-06T01:54:46.507Z,98.10
2018-10-06T01:57:15.153Z,98.10
2018-10-06T01:59:43.836Z,98.40
2018-10-06T02:02:12.528Z,98.00
2018-10-06T02:04:41.223Z,97.90
2018-10-06T02:07:09.901Z,98.10
2018-10-06T02:09:39.672Z,97.90
2018-10-06T02:12:08.422Z,98.50
2018-10-06T02:14:37.174Z,98.70
2018-10-06T02:17:05.939Z,98.60
2018-10-06T02:19:34.648Z,98.20
2018-10-06T02:22:05.723Z,97.80
2018-10-06T02:24:34.380Z,97.80
2018-10-06T02:27:03.779Z,97.40
2018-10-06T02:29:32.618Z,97.70
2018-10-06T02:32:01.305Z,97.70
2018-10-06T02:34:29.965Z,97.80
2018-10-06T02:36:58.957Z,97.80
2018-10-06T02:39:27.805Z,98.00
2018-10-06T02:41:56.435Z,98.10
2018-10-06T02:45:54.657Z,97.60
2018-10-06T02:48:23.274Z,98.20
2018-10-06T02:50:51.942Z,98.80
2018-10-06T02:53:20.720Z,98.90
2018-10-06T02:55:49.539Z,99.10
2018-10-06T02:58:18.207Z,99.10
2018-10-06T03:00:46.941Z,99.20
2018-10-06T03:03:15.529Z,99.10
2018-10-06T03:05:45.048Z,99.10
2018-10-06T03:08:15.294Z,99.30
2018-10-06T03:10:43.894Z,99.50
2018-10-06T03:13:12.569Z,99.90
2018-10-06T03:15:41.581Z,99.90
2018-10-06T03:18:10.314Z,99.60
2018-10-06T03:20:39.021Z,99.30
2018-10-06T03:23:07.872Z,99.20
2018-10-06T03:25:36.606Z,98.50
2018-10-06T03:28:05.300Z,98.40
2018-10-06T03:30:34.244Z,98.30
2018-10-06T03:33:02.957Z,98.50
2018-10-06T03:35:31.730Z,98.40
2018-10-06T03:38:00.513Z,98.10
2018-10-06T03:40:29.242Z,98.10
2018-10-06T03:42:58.045Z,98.00
2018-10-06T03:45:26.810Z,97.90
2018-10-06T03:47:55.481Z,98.00
2018-10-06T03:50:24.136Z,98.00
2018-10-06T03:52:53.258Z,97.80
2018-10-06T03:55:22.083Z,97.80
2018-10-06T03:57:50.787Z,97.90
2018-10-06T04:00:21.051Z,98.50
2018-10-06T04:02:49.759Z,98.80
2018-10-06T04:05:18.466Z,98.80
2018-10-06T04:07:47.222Z,99.10
2018-10-06T04:10:15.894Z,99.00
2018-10-06T04:12:44.463Z,99.00
2018-10-06T04:15:13.296Z,98.90
2018-10-06T04:17:42.196Z,99.00
2018-10-06T04:20:11.922Z,99.00
2018-10-06T04:22:40.710Z,99.50
2018-10-06T04:25:09.430Z,99.50
2018-10-06T04:27:38.168Z,99.00
2018-10-06T04:30:07.451Z,99.40
2018-10-06T04:32:36.046Z,99.40
2018-10-06T04:35:04.864Z,99.60
2018-10-06T04:37:33.766Z,99.50
2018-10-06T04:40:02.561Z,99.20
2018-10-06T04:42:31.304Z,98.70
2018-10-06T04:45:00.958Z,99.50
2018-10-06T04:47:29.636Z,99.20
2018-10-06T04:50:00.344Z,99.00
2018-10-06T04:52:29.171Z,98.60
2018-10-06T04:54:57.835Z,98.30
2018-10-06T04:57:26.547Z,98.20
2018-10-06T04:59:55.607Z,98.10
2018-10-06T05:02:24.312Z,98.10
2018-10-06T05:04:53.096Z,97.90
2018-10-06T05:07:21.870Z,98.10
2018-10-06T05:09:50.552Z,98.10
2018-10-06T05:12:19.725Z,98.20
2018-10-06T05:14:48.668Z,98.20
2018-10-06T05:17:17.349Z,98.30
2018-10-06T05:19:46.140Z,98.20
2018-10-06T05:22:15.009Z,98.30
2018-10-06T05:24:44.996Z,97.90
2018-10-06T05:27:13.662Z,97.90
2018-10-06T05:29:42.509Z,97.90
2018-10-06T05:32:11.227Z,98.00
2018-10-06T05:34:39.899Z,97.80
2018-10-06T05:37:08.591Z,98.20
2018-10-06T05:39:37.329Z,98.50
2018-10-06T05:42:06.017Z,98.90
2018-10-06T05:44:35.030Z,99.10
2018-10-06T05:47:06.358Z,99.00
2018-10-06T05:49:35.126Z,98.40
2018-10-06T05:52:03.792Z,98.20
2018-10-06T05:54:32.613Z,98.50
2018-10-06T05:57:01.736Z,98.50
2018-10-06T05:59:30.384Z,99.60
2018-10-06T06:01:59.876Z,98.70
2018-10-06T06:04:28.647Z,98.70
2018-10-06T06:06:57.358Z,98.60
2018-10-06T06:09:26.083Z,98.30
2018-10-06T06:11:54.798Z,98.20
2018-10-06T06:14:24.376Z,98.20
2018-10-06T06:16:54.503Z,98.20
2018-10-06T06:19:23.303Z,98.20
2018-10-06T06:21:51.952Z,98.20
2018-10-06T06:24:20.807Z,98.10
2018-10-06T06:26:49.649Z,98.70
2018-10-06T06:29:18.184Z,98.00
2018-10-06T06:31:46.936Z,97.80
2018-10-06T06:34:16.999Z,97.70
2018-10-06T06:36:45.714Z,97.50
2018-10-06T06:39:24.536Z,96.90
2018-10-06T06:41:53.220Z,97.30
2018-10-06T06:44:22.088Z,97.30
2018-10-06T06:46:50.643Z,97.50
2018-10-06T06:49:19.883Z,97.90
2018-10-06T06:51:48.656Z,97.90
2018-10-06T06:54:18.266Z,97.90
2018-10-06T06:56:47.067Z,97.90
2018-10-06T06:59:15.797Z,97.70
2018-10-06T07:01:44.583Z,97.50
2018-10-06T07:04:15.396Z,97.10
2018-10-06T07:06:44.094Z,96.80
2018-10-06T07:09:12.804Z,96.70
2018-10-06T07:11:44.118Z,96.70
2018-10-06T07:14:17.784Z,97.10
2018-10-06T07:18:16.331Z,97.20
2018-10-06T07:20:45.089Z,96.50
2018-10-06T07:23:13.758Z,96.30
2018-10-06T07:25:42.774Z,96.20
2018-10-06T07:28:11.603Z,96.00
2018-10-06T07:30:46.139Z,95.90
2018-10-06T07:33:18.369Z,95.70
2018-10-06T07:35:49.634Z,95.40
2018-10-06T07:38:19.544Z,95.20
2018-10-06T07:42:20.722Z,94.70
2018-10-06T07:44:53.878Z,94.70
2018-10-06T07:47:22.769Z,94.30
2018-10-06T07:49:51.402Z,94.10
2018-10-06T07:52:20.088Z,94.50
2018-10-06T07:54:48.731Z,94.00
2018-10-06T07:57:17.491Z,93.90
2018-10-06T07:59:46.075Z,93.70
2018-10-06T08:02:14.854Z,94.00
2018-10-06T08:04:43.553Z,93.50
2018-10-06T08:07:12.682Z,92.90
2018-10-06T08:09:41.467Z,92.50
2018-10-06T08:12:10.128Z,92.30
2018-10-06T08:14:38.857Z,92.20
2018-10-06T08:17:07.443Z,92.20
2018-10-06T08:19:36.075Z,91.70
2018-10-06T08:25:04.712Z,91.20
2018-10-06T08:27:33.513Z,91.10
2018-10-06T08:30:02.414Z,90.80
2018-10-06T08:32:31.214Z,90.60
2018-10-06T08:34:59.818Z,90.10
2018-10-06T08:38:57.854Z,90.10
2018-10-06T08:41:26.496Z,89.50
2018-10-06T08:43:55.520Z,88.50
2018-10-06T08:46:25.253Z,89.10
2018-10-06T08:48:58.878Z,88.20
2018-10-06T08:51:29.954Z,88.50
2018-10-06T08:53:58.876Z,88.70
2018-10-06T08:56:27.530Z,88.90
2018-10-06T08:58:57.534Z,87.70
2018-10-06T09:01:27.573Z,88.60
2018-10-06T09:03:56.638Z,88.60
2018-10-06T09:06:28.039Z,88.50
2018-10-06T09:08:57.606Z,87.80
2018-10-06T09:11:26.429Z,86.70
2018-10-06T09:13:55.939Z,87.00
2018-10-06T09:16:25.280Z,87.70
2018-10-06T09:18:53.944Z,88.30
2018-10-06T09:21:22.627Z,88.40
2018-10-06T09:23:57.759Z,88.40
2018-10-06T09:26:26.522Z,88.80
2018-10-06T09:28:55.327Z,88.80
2018-10-06T09:31:24.054Z,89.00
2018-10-06T09:33:52.758Z,88.70
2018-10-06T09:36:22.427Z,88.60
2018-10-06T09:38:53.122Z,88.00
2018-10-06T09:41:21.936Z,87.70
2018-10-06T09:43:50.618Z,86.70
2018-10-06T09:46:19.573Z,86.70
2018-10-06T09:48:50.434Z,86.90
2018-10-06T09:51:20.171Z,86.30
2018-10-06T09:53:48.935Z,85.70
2018-10-06T09:56:17.658Z,83.90
2018-10-06T09:58:47.004Z,82.30
2018-10-06T10:01:21.039Z,81.80
2018-10-06T10:03:55.858Z,80.40
2018-10-06T10:06:24.632Z,78.60
2018-10-06T10:08:53.602Z,78.00
2018-10-06T10:11:22.707Z,76.30
2018-10-06T10:13:51.860Z,72.80
2018-10-06T10:16:20.780Z,69.10
2018-10-06T10:18:49.472Z,67.40
2018-10-06T10:21:22.616Z,63.90
2018-10-06T10:23:51.413Z,62.40
2018-10-06T10:26:20.058Z,60.80
2018-10-06T10:28:48.845Z,58.70
2018-10-06T10:31:17.651Z,60.20
2018-10-06T10:33:46.302Z,59.60
2018-10-06T10:36:15.012Z,57.10
2018-10-06T10:38:43.709Z,58.60
2018-10-06T10:41:12.462Z,56.50
2018-10-06T10:43:41.384Z,54.60
2018-10-06T10:46:10.097Z,52.70
2018-10-06T10:48:39.682Z,52.50
2018-10-06T10:51:12.411Z,49.30
2018-10-06T10:53:45.780Z,48.10
2018-10-06T10:56:18.406Z,48.10
2018-10-06T10:58:47.239Z,51.30
2018-10-06T11:01:16.043Z,50.40
2018-10-06T11:03:45.095Z,48.30
2018-10-06T11:06:13.758Z,46.90
2018-10-06T11:08:42.447Z,45.70
2018-10-06T11:11:11.101Z,44.70
2018-10-06T11:13:39.879Z,43.40
2018-10-06T11:20:46.214Z,45.80
2018-10-06T11:23:15.002Z,45.90
2018-10-06T11:25:43.670Z,46.90
2018-10-06T11:28:12.452Z,49.50
2018-10-06T11:30:41.122Z,51.20
2018-10-06T11:33:10.317Z,47.10
2018-10-06T11:35:39.010Z,44.70
2018-10-06T11:38:07.851Z,47.10
2018-10-06T11:40:36.466Z,46.70
2018-10-06T11:43:05.237Z,44.20
2018-10-06T11:45:33.909Z,43.40
2018-10-06T11:48:02.586Z,42.90
2018-10-06T11:50:31.280Z,41.00
2018-10-06T11:52:59.976Z,41.30
2018-10-06T11:55:28.639Z,39.80
2018-10-06T11:57:57.272Z,39.90
2018-10-06T12:01:55.531Z,39.10
2018-10-06T12:04:24.450Z,38.00
2018-10-06T12:06:53.116Z,38.50
2018-10-06T12:09:23.981Z,38.80
2018-10-06T12:11:52.747Z,38.00
2018-10-06T12:14:21.466Z,38.50
2018-10-06T12:16:50.261Z,38.00
2018-10-06T12:19:19.147Z,38.60
2018-10-06T12:21:48.286Z,39.80
2018-10-06T12:24:17.123Z,39.60
2018-10-06T12:26:45.859Z,39.20
2018-10-06T12:29:14.672Z,39.40
2018-10-06T12:31:43.452Z,42.40
2018-10-06T12:34:12.320Z,41.60
2018-10-06T12:36:41.030Z,40.80
2018-10-06T12:39:09.839Z,41.10
2018-10-06T12:41:38.522Z,41.90
2018-10-06T12:44:07.302Z,42.60
2018-10-06T12:46:35.982Z,43.00
2018-10-06T12:49:04.846Z,43.20
2018-10-06T12:51:33.649Z,42.90
2018-10-06T12:54:02.319Z,41.40
2018-10-06T12:56:31.228Z,40.10
2018-10-06T12:59:00.064Z,40.00
2018-10-06T13:01:28.928Z,39.40
2018-10-06T13:03:57.834Z,38.50
2018-10-06T13:06:26.738Z,38.20
2018-10-06T13:08:55.423Z,37.60
2018-10-06T13:11:24.122Z,38.30
2018-10-06T13:13:53.002Z,39.80
2018-10-06T13:16:21.671Z,43.10
2018-10-06T13:18:50.457Z,44.80
2018-10-06T13:21:19.153Z,45.20
2018-10-06T13:23:47.987Z,45.80
2018-10-06T13:26:17.017Z,47.80
2018-10-06T13:28:49.124Z,49.40
2018-10-06T13:31:17.854Z,51.20
2018-10-06T13:33:46.624Z,51.70
2018-10-06T13:36:15.286Z,51.20
2018-10-06T13:38:43.951Z,53.60
2018-10-06T13:41:12.845Z,52.80
2018-10-06T13:43:41.453Z,53.70
2018-10-06T13:46:10.259Z,56.60
2018-10-06T13:48:39.178Z,55.00
2018-10-06T13:51:08.072Z,56.60
2018-10-06T13:53:36.829Z,55.70
2018-10-06T13:56:07.074Z,55.10
2018-10-06T13:58:35.892Z,54.80
2018-10-06T14:01:04.744Z,54.70
2018-10-06T14:03:33.489Z,55.10
2018-10-06T14:06:02.301Z,54.80
2018-10-06T14:08:33.696Z,55.30
2018-10-06T14:11:02.384Z,55.80
2018-10-06T14:13:31.074Z,56.10
2018-10-06T14:15:59.801Z,55.60
2018-10-06T14:18:28.423Z,55.50
2018-10-06T14:20:57.127Z,55.50
2018-10-06T14:23:26.599Z,55.60
2018-10-06T14:25:55.229Z,56.10
2018-10-06T14:28:25.220Z,56.50
2018-10-06T14:30:53.907Z,56.10
2018-10-06T14:33:22.569Z,56.30
2018-10-06T14:35:51.541Z,55.80
2018-10-06T14:38:20.283Z,55.40
2018-10-06T14:40:49.015Z,55.30
2018-10-06T14:43:17.741Z,56.80
2018-10-06T14:45:47.590Z,54.80
2018-10-06T14:48:16.401Z,54.80
2018-10-06T14:50:45.083Z,54.40
2018-10-06T14:53:13.826Z,55.20
2018-10-06T14:55:42.542Z,55.80
2018-10-06T14:58:11.315Z,56.20
2018-10-06T15:00:40.584Z,56.80
2018-10-06T15:03:09.323Z,57.40
2018-10-06T15:05:38.437Z,57.40
2018-10-06T15:08:07.757Z,58.20
2018-10-06T15:10:36.686Z,59.20
2018-10-06T15:13:05.410Z,59.10
2018-10-06T15:15:34.116Z,58.90
2018-10-06T15:18:06.195Z,59.30
2018-10-06T15:20:36.279Z,60.40
2018-10-06T15:23:06.346Z,60.10
2018-10-06T15:25:34.959Z,60.40
2018-10-06T15:28:06.110Z,61.40
2018-10-06T15:30:34.714Z,62.50
2018-10-06T15:33:03.349Z,63.30
2018-10-06T15:35:32.049Z,64.20
2018-10-06T15:38:00.917Z,65.10
2018-10-06T15:40:29.690Z,65.50
2018-10-06T15:42:58.437Z,66.20
2018-10-06T15:45:27.257Z,66.90
2018-10-06T15:47:55.942Z,67.70
2018-10-06T15:50:24.657Z,68.00
2018-10-06T15:52:53.408Z,67.90
2018-10-06T15:55:22.228Z,68.40
2018-10-06T15:57:50.918Z,68.60
2018-10-06T16:00:19.597Z,68.70
2018-10-06T16:02:48.450Z,68.70
2018-10-06T16:05:17.095Z,71.10
2018-10-06T16:07:45.802Z,69.10
2018-10-06T16:10:14.608Z,69.00
2018-10-06T16:12:43.422Z,69.20
2018-10-06T16:15:12.351Z,69.50
2018-10-06T16:17:41.175Z,69.90
2018-10-06T16:20:09.890Z,70.00
2018-10-06T16:22:38.571Z,70.20
2018-10-06T16:25:07.245Z,70.40
2018-10-06T16:27:35.936Z,71.30
2018-10-06T16:30:05.107Z,70.90
2018-10-06T16:32:33.771Z,74.10
2018-10-06T16:35:02.497Z,76.50
2018-10-06T16:37:31.193Z,77.40
2018-10-06T16:39:59.965Z,78.50
2018-10-06T16:42:28.771Z,79.50
2018-10-06T16:44:57.623Z,79.90
2018-10-06T16:47:26.288Z,79.90
2018-10-06T16:49:55.085Z,80.60
2018-10-06T16:52:23.822Z,81.50
2018-10-06T16:54:52.606Z,81.70
2018-10-06T16:57:21.308Z,82.20
2018-10-06T16:59:49.938Z,82.50
2018-10-06T17:02:18.634Z,83.00
2018-10-06T17:04:47.482Z,83.10
2018-10-06T17:07:16.297Z,83.70
2018-10-06T17:09:45.022Z,84.20
2018-10-06T17:12:13.806Z,84.60
2018-10-06T17:14:42.621Z,85.20
2018-10-06T17:17:11.354Z,85.60
2018-10-06T17:19:40.012Z,86.00
2018-10-06T17:22:08.766Z,86.00
2018-10-06T17:24:37.504Z,86.50
2018-10-06T17:27:06.606Z,86.50
2018-10-06T17:29:35.865Z,86.50
2018-10-06T17:32:04.622Z,86.80
2018-10-06T17:34:33.459Z,86.80
2018-10-06T17:37:02.202Z,87.20
2018-10-06T17:39:31.040Z,87.50
2018-10-06T17:41:59.980Z,87.90
2018-10-06T17:44:29.073Z,88.90
2018-10-06T17:46:57.679Z,88.10
2018-10-06T17:49:26.586Z,88.10
2018-10-06T17:51:55.487Z,88.10
2018-10-06T17:54:24.244Z,88.00
2018-10-06T17:56:53.067Z,87.80
2018-10-06T17:59:21.724Z,87.70
2018-10-06T18:01:50.413Z,88.20
2018-10-06T18:04:19.147Z,88.40
2018-10-06T18:06:47.999Z,89.10
2018-10-06T18:09:16.880Z,89.20
2018-10-06T18:11:45.616Z,89.80
2018-10-06T18:14:14.336Z,90.10
2018-10-06T18:16:43.010Z,90.20
2018-10-06T18:19:11.746Z,90.40
2018-10-06T18:21:40.614Z,90.50
2018-10-06T18:24:09.238Z,90.60
2018-10-06T18:26:38.019Z,91.10
2018-10-06T18:29:06.935Z,91.00
2018-10-06T18:31:35.573Z,91.00
2018-10-06T18:34:04.302Z,91.10
2018-10-06T18:36:33.263Z,91.10
2018-10-06T18:39:01.937Z,91.00
2018-10-06T18:41:30.927Z,91.10
2018-10-06T18:43:59.810Z,91.20
2018-10-06T18:46:29.366Z,91.30
2018-10-06T18:48:58.325Z,91.50
2018-10-06T18:51:27.162Z,91.50
2018-10-06T18:53:56.007Z,91.80
2018-10-06T18:56:24.893Z,91.90
2018-10-06T18:58:53.551Z,91.30
2018-10-06T19:01:22.233Z,92.10
2018-10-06T19:03:51.087Z,92.20
2018-10-06T19:06:19.757Z,92.30
2018-10-06T19:08:48.604Z,92.30
2018-10-06T19:11:17.555Z,92.40
2018-10-06T19:13:46.475Z,92.40
2018-10-06T19:16:15.393Z,92.50
2018-10-06T19:18:44.249Z,92.70
2018-10-06T19:21:13.124Z,92.70
2018-10-06T19:23:41.928Z,92.40
2018-10-06T19:26:10.658Z,92.90
2018-10-06T19:28:39.473Z,93.00
2018-10-06T19:31:08.265Z,92.80
2018-10-06T19:33:37.938Z,92.90
2018-10-06T19:36:07.073Z,92.90
2018-10-06T19:38:35.939Z,92.90
2018-10-06T19:41:04.685Z,92.90
2018-10-06T19:43:33.304Z,93.20
2018-10-06T19:46:02.274Z,92.70
2018-10-06T19:48:31.116Z,92.90
2018-10-06T19:50:59.783Z,93.00
2018-10-06T19:53:28.775Z,92.90
2018-10-06T19:55:57.635Z,92.90
2018-10-06T19:58:26.514Z,92.80
2018-10-06T20:00:55.260Z,92.70
2018-10-06T20:03:24.085Z,92.10
2018-10-06T20:05:52.827Z,92.50
2018-10-06T20:08:22.202Z,92.40
2018-10-06T20:10:51.773Z,92.50
2018-10-06T20:13:20.473Z,92.60
2018-10-06T20:15:49.208Z,92.40
2018-10-06T20:18:18.010Z,92.80
2018-10-06T20:20:48.737Z,92.70
2018-10-06T20:23:20.591Z,92.80
2018-10-06T20:25:49.538Z,92.90
2018-10-06T20:28:18.267Z,93.10
2018-10-06T20:30:48.917Z,93.10
2018-10-06T20:33:17.588Z,93.00
2018-10-06T20:35:46.253Z,93.00
2018-10-06T20:38:15.050Z,92.90
2018-10-06T20:40:43.729Z,92.90
2018-10-06T20:43:13.883Z,93.00
2018-10-06T20:45:42.580Z,92.30
2018-10-06T20:48:11.281Z,93.00
2018-10-06T20:50:40.170Z,93.00
2018-10-06T20:53:08.973Z,92.10
2018-10-06T20:55:39.912Z,92.50
2018-10-06T20:58:08.673Z,92.60
2018-10-06T21:00:37.462Z,92.70
2018-10-06T21:03:06.188Z,92.80
2018-10-06T21:05:34.911Z,92.40
2018-10-06T21:08:05.945Z,93.10
2018-10-06T21:10:34.733Z,93.20
2018-10-06T21:13:03.549Z,93.30
2018-10-06T21:15:32.437Z,93.30
2018-10-06T21:18:01.151Z,93.30
2018-10-06T21:20:31.059Z,93.30
2018-10-06T21:23:04.345Z,92.80
2018-10-06T21:25:39.449Z,93.10
2018-10-06T21:28:11.302Z,93.20
2018-10-06T21:30:40.006Z,93.40
2018-10-06T21:33:08.799Z,93.30
2018-10-06T21:35:37.460Z,93.40
2018-10-06T21:38:06.699Z,93.40
2018-10-06T21:40:35.368Z,93.30
2018-10-06T21:43:04.178Z,93.30
2018-10-06T21:45:32.919Z,93.40
2018-10-06T21:48:04.087Z,93.40
2018-10-06T21:50:32.808Z,93.30
2018-10-06T21:53:02.814Z,93.10
2018-10-06T21:55:32.846Z,93.30
2018-10-06T21:58:01.541Z,93.40
2018-10-06T22:00:30.301Z,93.20
2018-10-06T22:02:58.939Z,93.10
2018-10-06T22:05:27.725Z,93.00
2018-10-06T22:07:56.435Z,93.00
2018-10-06T22:10:25.135Z,93.30
2018-10-06T22:12:56.898Z,93.30
2018-10-06T22:15:25.933Z,93.10
2018-10-06T22:17:54.646Z,92.90
2018-10-06T22:20:23.399Z,93.00
2018-10-06T22:22:52.129Z,93.00
2018-10-06T22:25:20.902Z,93.00
2018-10-06T22:27:49.490Z,92.90
2018-10-06T22:30:18.322Z,92.70
2018-10-06T22:32:47.015Z,93.10
2018-10-06T22:35:15.659Z,93.20
2018-10-06T22:37:44.366Z,93.20
2018-10-06T22:40:13.366Z,92.60
2018-10-06T22:42:42.185Z,93.20
2018-10-06T22:45:10.854Z,94.00
2018-10-06T22:47:40.801Z,94.20
2018-10-06T22:50:09.508Z,94.10
2018-10-06T22:52:38.356Z,94.00
2018-10-06T22:55:07.132Z,93.90
2018-10-06T22:57:35.824Z,93.10
2018-10-06T23:00:04.843Z,93.60
2018-10-06T23:02:33.543Z,93.60
2018-10-06T23:05:02.282Z,93.80
2018-10-06T23:07:32.919Z,93.80
2018-10-06T23:10:01.520Z,93.80
2018-10-06T23:12:30.200Z,92.90
2018-10-06T23:14:59.262Z,94.10
2018-10-06T23:17:27.915Z,94.60
2018-10-06T23:19:57.755Z,94.70
2018-10-06T23:22:26.557Z,94.90
2018-10-06T23:24:55.385Z,94.90
2018-10-06T23:27:24.066Z,94.90
2018-10-06T23:29:52.738Z,94.40
2018-10-06T23:32:21.831Z,95.00
2018-10-06T23:34:50.567Z,95.00
2018-10-06T23:37:19.277Z,95.00
2018-10-06T23:39:49.171Z,95.20
2018-10-06T23:42:17.859Z,95.10
2018-10-06T23:44:46.557Z,95.00
2018-10-06T23:47:15.376Z,94.30
2018-10-06T23:49:44.219Z,94.70
2018-10-06T23:52:12.987Z,94.60
2018-10-06T23:54:41.694Z,94.60
2018-10-06T23:57:10.394Z,94.40
2018-10-06T23:59:40.967Z,94.30
